createdAt,value
2023-01-23T00:00:09.494Z,-4.30
2023-01-23T00:02:36.180Z,-4.30
2023-01-23T00:05:02.963Z,-4.20
2023-01-23T00:07:29.572Z,-4.20
2023-01-23T00:09:56.184Z,-4.20
2023-01-23T00:12:22.813Z,-4.30
2023-01-23T00:14:49.459Z,-4.30
2023-01-23T00:17:19.304Z,-4.30
2023-01-23T00:19:45.941Z,-4.40
2023-01-23T00:22:15.252Z,-4.20
2023-01-23T00:24:41.876Z,-4.10
2023-01-23T00:27:08.513Z,-3.90
2023-01-23T00:29:35.225Z,-3.80
2023-01-23T00:32:01.926Z,-3.80
2023-01-23T00:34:28.627Z,-3.70
2023-01-23T00:36:55.321Z,-3.70
2023-01-23T00:39:22.194Z,-3.70
2023-01-23T00:41:49.734Z,-3.80
2023-01-23T00:44:23.718Z,-3.80
2023-01-23T00:46:50.393Z,-3.80
2023-01-23T00:49:17.817Z,-3.80
2023-01-23T00:51:44.925Z,-3.70
2023-01-23T00:54:11.767Z,-3.70
2023-01-23T00:56:38.777Z,-3.70
2023-01-23T00:59:05.624Z,-3.60
2023-01-23T01:01:32.795Z,-3.60
2023-01-23T01:04:00.016Z,-3.50
2023-01-23T01:06:26.697Z,-3.50
2023-01-23T01:08:55.685Z,-3.50
2023-01-23T01:11:22.353Z,-3.60
2023-01-23T01:13:49.171Z,-3.60
2023-01-23T01:16:16.190Z,-3.60
2023-01-23T01:18:42.928Z,-3.70
2023-01-23T01:21:10.679Z,-3.80
2023-01-23T01:23:37.439Z,-3.90
2023-01-23T01:26:10.923Z,-3.90
2023-01-23T01:28:39.364Z,-3.90
2023-01-23T01:31:10.055Z,-3.80
2023-01-23T01:33:37.835Z,-3.80
2023-01-23T01:36:08.228Z,-3.80
2023-01-23T01:38:34.892Z,-3.80
2023-01-23T01:41:01.552Z,-3.80
2023-01-23T01:43:28.248Z,-3.80
2023-01-23T01:46:00.947Z,-3.80
2023-01-23T01:48:31.065Z,-3.80
2023-01-23T01:50:58.776Z,-3.80
2023-01-23T01:53:27.105Z,-3.80
2023-01-23T01:55:53.859Z,-3.80
2023-01-23T01:58:20.625Z,-3.80
2023-01-23T02:00:47.381Z,-3.80
2023-01-23T02:03:15.162Z,-3.70
2023-01-23T02:05:51.100Z,-3.70
2023-01-23T02:08:17.738Z,-3.60
2023-01-23T02:10:44.439Z,-3.60
2023-01-23T02:13:20.802Z,-3.60
2023-01-23T02:15:48.034Z,-3.60
2023-01-23T02:18:14.699Z,-3.50
2023-01-23T02:20:41.640Z,-3.50
2023-01-23T02:23:14.296Z,-3.50
2023-01-23T02:25:44.012Z,-3.50
2023-01-23T02:28:15.021Z,-3.40
2023-01-23T02:30:42.535Z,-3.40
2023-01-23T02:33:22.302Z,-3.50
2023-01-23T02:35:48.971Z,-3.40
2023-01-23T02:38:17.450Z,-3.30
2023-01-23T02:40:44.155Z,-3.20
2023-01-23T02:43:13.236Z,-3.20
2023-01-23T02:45:40.052Z,-3.10
2023-01-23T02:48:08.115Z,-3.10
2023-01-23T02:50:34.979Z,-3.10
2023-01-23T02:53:01.651Z,-3.00
2023-01-23T02:55:33.078Z,-3.00
2023-01-23T02:58:20.244Z,-3.10
2023-01-23T03:00:47.073Z,-3.10
2023-01-23T03:03:13.905Z,-3.10
2023-01-23T03:05:41.565Z,-3.10
2023-01-23T03:08:08.245Z,-3.20
2023-01-23T03:10:34.857Z,-3.10
2023-01-23T03:13:03.453Z,-3.10
2023-01-23T03:15:30.806Z,-3.10
2023-01-23T03:17:57.560Z,-3.20
2023-01-23T03:20:24.187Z,-3.20
2023-01-23T03:22:50.788Z,-3.20
2023-01-23T03:25:17.673Z,-3.10
2023-01-23T03:27:44.363Z,-3.10
2023-01-23T03:30:21.934Z,-3.10
2023-01-23T03:32:48.774Z,-3.10
2023-01-23T03:35:19.802Z,-3.10
2023-01-23T03:37:47.310Z,-3.00
2023-01-23T03:40:36.740Z,-3.00
2023-01-23T03:43:03.714Z,-2.90
2023-01-23T03:45:31.023Z,-2.90
2023-01-23T03:47:57.840Z,-2.80
2023-01-23T03:50:24.691Z,-2.80
2023-01-23T03:52:51.569Z,-2.80
2023-01-23T03:55:18.225Z,-2.80
2023-01-23T03:57:44.883Z,-2.80
2023-01-23T04:00:13.810Z,-2.80
2023-01-23T04:02:40.798Z,-2.80
2023-01-23T04:05:07.621Z,-2.70
2023-01-23T04:07:34.282Z,-2.70
2023-01-23T04:10:00.893Z,-2.70
2023-01-23T04:12:27.588Z,-2.70
2023-01-23T04:14:54.256Z,-2.80
2023-01-23T04:17:20.875Z,-2.80
2023-01-23T04:19:47.488Z,-2.80
2023-01-23T04:22:14.118Z,-2.80
2023-01-23T04:24:40.697Z,-2.80
2023-01-23T04:27:07.417Z,-2.80
2023-01-23T04:29:34.023Z,-2.70
2023-01-23T04:32:00.759Z,-2.60
2023-01-23T04:34:28.508Z,-2.60
2023-01-23T04:36:55.175Z,-2.60
2023-01-23T04:39:21.820Z,-2.60
2023-01-23T04:41:48.448Z,-2.60
2023-01-23T04:44:21.211Z,-2.60
2023-01-23T04:46:49.932Z,-2.70
2023-01-23T04:49:16.874Z,-2.70
2023-01-23T04:52:21.507Z,-2.70
2023-01-23T04:54:48.228Z,-2.60
2023-01-23T04:57:14.866Z,-2.60
2023-01-23T04:59:55.882Z,-2.50
2023-01-23T05:02:22.636Z,-2.50
2023-01-23T05:04:49.326Z,-2.50
2023-01-23T05:07:16.033Z,-2.50
2023-01-23T05:09:43.200Z,-2.50
2023-01-23T05:12:09.803Z,-2.50
2023-01-23T05:14:36.491Z,-2.40
2023-01-23T05:17:03.178Z,-2.40
2023-01-23T05:19:29.868Z,-2.40
2023-01-23T05:21:56.459Z,-2.40
2023-01-23T05:24:23.104Z,-2.50
2023-01-23T05:26:49.811Z,-2.60
2023-01-23T05:29:16.667Z,-2.60
2023-01-23T05:31:49.455Z,-2.60
2023-01-23T05:34:16.159Z,-2.60
2023-01-23T05:36:42.832Z,-2.60
2023-01-23T05:39:09.459Z,-2.60
2023-01-23T05:41:36.081Z,-2.60
2023-01-23T05:44:02.729Z,-2.60
2023-01-23T05:46:29.408Z,-2.60
2023-01-23T05:48:56.011Z,-2.60
2023-01-23T05:51:23.805Z,-2.60
2023-01-23T05:53:50.509Z,-2.60
2023-01-23T05:56:17.145Z,-2.60
2023-01-23T05:58:43.804Z,-2.70
2023-01-23T06:01:10.460Z,-2.60
2023-01-23T06:03:37.159Z,-2.60
2023-01-23T06:06:03.941Z,-2.60
2023-01-23T06:08:30.633Z,-2.60
2023-01-23T06:10:58.545Z,-2.50
2023-01-23T06:13:26.004Z,-2.50
2023-01-23T06:15:52.840Z,-2.50
2023-01-23T06:18:19.869Z,-2.50
2023-01-23T06:20:46.875Z,-2.40
2023-01-23T06:23:13.832Z,-2.30
2023-01-23T06:25:40.641Z,-2.40
2023-01-23T06:28:07.307Z,-2.40
2023-01-23T06:30:34.219Z,-2.40
2023-01-23T06:33:00.962Z,-2.40
2023-01-23T06:35:27.570Z,-2.40
2023-01-23T06:37:54.190Z,-2.40
2023-01-23T06:40:21.130Z,-2.50
2023-01-23T06:42:47.968Z,-2.40
2023-01-23T06:45:14.556Z,-2.50
2023-01-23T06:47:41.177Z,-2.50
2023-01-23T06:50:08.239Z,-2.50
2023-01-23T06:52:34.949Z,-2.50
2023-01-23T06:55:01.573Z,-2.40
2023-01-23T06:57:28.152Z,-2.40
2023-01-23T06:59:54.865Z,-2.30
2023-01-23T07:02:21.464Z,-2.30
2023-01-23T07:04:48.219Z,-2.40
2023-01-23T07:07:14.820Z,-2.30
2023-01-23T07:09:41.576Z,-2.30
2023-01-23T07:12:08.646Z,-2.20
2023-01-23T07:14:35.286Z,-2.20
2023-01-23T07:17:01.922Z,-2.30
2023-01-23T07:19:28.522Z,-2.30
2023-01-23T07:21:55.168Z,-2.20
2023-01-23T07:24:21.815Z,-2.20
2023-01-23T07:26:48.496Z,-2.20
2023-01-23T07:29:15.128Z,-2.20
2023-01-23T07:31:41.757Z,-2.20
2023-01-23T07:34:08.472Z,-2.20
2023-01-23T07:36:35.080Z,-2.20
2023-01-23T07:39:01.759Z,-2.10
2023-01-23T07:41:28.376Z,-2.20
2023-01-23T07:43:54.992Z,-2.20
2023-01-23T07:46:23.719Z,-2.10
2023-01-23T07:48:50.569Z,-2.10
2023-01-23T07:51:17.300Z,-2.10
2023-01-23T07:53:44.026Z,-2.10
2023-01-23T07:56:10.683Z,-2.10
2023-01-23T07:58:37.291Z,-2.00
2023-01-23T08:01:08.672Z,-2.00
2023-01-23T08:03:35.413Z,-1.90
2023-01-23T08:06:02.099Z,-1.90
2023-01-23T08:08:28.778Z,-1.90
2023-01-23T08:10:55.397Z,-1.90
2023-01-23T08:13:22.051Z,-1.80
2023-01-23T08:15:48.735Z,-1.70
2023-01-23T08:18:15.369Z,-1.60
2023-01-23T08:20:42.027Z,-1.60
2023-01-23T08:23:08.624Z,-1.60
2023-01-23T08:25:37.705Z,-1.50
2023-01-23T08:28:04.442Z,-1.50
2023-01-23T08:30:31.054Z,-1.50
2023-01-23T08:32:57.738Z,-1.40
2023-01-23T08:35:28.641Z,-1.40
2023-01-23T08:37:55.231Z,-1.40
2023-01-23T08:40:22.180Z,-1.40
2023-01-23T08:42:48.951Z,-1.40
2023-01-23T08:45:15.600Z,-1.40
2023-01-23T08:47:42.416Z,-1.30
2023-01-23T08:50:09.735Z,-1.20
2023-01-23T08:52:36.337Z,-1.20
2023-01-23T08:55:03.077Z,-1.10
2023-01-23T08:57:29.774Z,-1.10
2023-01-23T08:59:56.543Z,-1.00
2023-01-23T09:02:23.388Z,-1.00
2023-01-23T09:04:57.313Z,-0.90
2023-01-23T09:07:23.929Z,-0.90
2023-01-23T09:09:50.778Z,-0.90
2023-01-23T09:12:17.393Z,-0.80
2023-01-23T09:14:44.054Z,-0.70
2023-01-23T09:17:10.655Z,-0.70
2023-01-23T09:19:37.265Z,-0.60
2023-01-23T09:22:03.981Z,-0.60
2023-01-23T09:24:30.606Z,-0.50
2023-01-23T09:26:57.848Z,-0.40
2023-01-23T09:29:24.467Z,-0.30
2023-01-23T09:31:51.186Z,-0.20
2023-01-23T09:34:17.859Z,-0.20
2023-01-23T09:36:44.658Z,-0.20
2023-01-23T09:39:11.622Z,-0.30
2023-01-23T09:41:39.617Z,-0.40
2023-01-23T09:44:28.701Z,-0.40
2023-01-23T09:47:02.300Z,-0.50
2023-01-23T09:49:37.706Z,-0.50
2023-01-23T09:52:16.629Z,-0.40
2023-01-23T09:54:44.601Z,-0.30
2023-01-23T09:57:13.209Z,-0.20
2023-01-23T09:59:53.711Z,-0.20
2023-01-23T10:02:26.878Z,-0.30
2023-01-23T10:04:54.424Z,-0.40
2023-01-23T10:07:21.093Z,-0.40
2023-01-23T10:09:58.608Z,-0.30
2023-01-23T10:12:32.616Z,-0.30
2023-01-23T10:15:02.394Z,-0.30
2023-01-23T10:17:53.091Z,-0.30
2023-01-23T10:20:20.041Z,-0.10
2023-01-23T10:23:05.791Z,0.00
2023-01-23T10:25:35.721Z,0.00
2023-01-23T10:28:16.330Z,-0.20
2023-01-23T10:30:43.925Z,-0.20
2023-01-23T10:33:14.863Z,-0.20
2023-01-23T10:35:53.234Z,-0.20
2023-01-23T10:38:27.727Z,-0.20
2023-01-23T10:41:13.161Z,-0.20
2023-01-23T10:43:43.710Z,-0.30
2023-01-23T10:46:15.056Z,-0.30
2023-01-23T10:48:49.125Z,-0.30
2023-01-23T10:51:41.826Z,-0.30
2023-01-23T10:54:17.000Z,-0.30
2023-01-23T10:56:52.420Z,-0.30
2023-01-23T10:59:42.317Z,-0.20
2023-01-23T11:02:15.765Z,-0.20
2023-01-23T11:04:43.839Z,-0.20
2023-01-23T11:07:16.045Z,-0.20
2023-01-23T11:09:52.066Z,-0.30
2023-01-23T11:12:20.330Z,-0.20
2023-01-23T11:14:47.477Z,-0.20
2023-01-23T11:17:24.254Z,-0.10
2023-01-23T11:19:53.631Z,0.00
2023-01-23T11:22:26.120Z,0.20
2023-01-23T11:24:52.827Z,0.30
2023-01-23T11:27:23.558Z,0.40
2023-01-23T11:29:58.525Z,0.40
2023-01-23T11:32:25.341Z,0.30
2023-01-23T11:34:53.921Z,0.40
2023-01-23T11:37:22.456Z,0.50
2023-01-23T11:40:12.027Z,0.50
2023-01-23T11:42:40.768Z,0.60
2023-01-23T11:45:19.915Z,0.60
2023-01-23T11:47:55.485Z,0.60
2023-01-23T11:50:28.391Z,0.60
2023-01-23T11:53:05.228Z,0.60
2023-01-23T11:55:41.291Z,0.60
2023-01-23T11:58:27.049Z,0.60
2023-01-23T12:01:06.018Z,0.50
2023-01-23T12:03:46.469Z,0.50
2023-01-23T12:06:20.466Z,0.50
2023-01-23T12:08:50.304Z,0.50
2023-01-23T12:11:20.168Z,0.60
2023-01-23T12:13:46.807Z,0.60
2023-01-23T12:16:16.559Z,0.60
2023-01-23T12:18:50.475Z,0.50
2023-01-23T12:21:25.634Z,0.40
2023-01-23T12:23:59.650Z,0.40
2023-01-23T12:26:27.485Z,0.30
2023-01-23T12:29:29.704Z,0.30
2023-01-23T12:32:11.487Z,0.40
2023-01-23T12:34:41.225Z,0.40
2023-01-23T12:37:30.776Z,0.40
2023-01-23T12:40:05.621Z,0.40
2023-01-23T12:42:53.434Z,0.50
2023-01-23T12:45:21.873Z,0.50
2023-01-23T12:48:09.842Z,0.60
2023-01-23T12:50:55.832Z,0.50
2023-01-23T12:53:26.309Z,0.50
2023-01-23T12:56:01.966Z,0.40
2023-01-23T12:58:30.126Z,0.40
2023-01-23T13:01:15.646Z,0.40
2023-01-23T13:03:54.716Z,0.30
2023-01-23T13:06:40.173Z,0.20
2023-01-23T13:09:27.063Z,0.20
2023-01-23T13:12:00.962Z,0.20
2023-01-23T13:14:36.817Z,0.20
2023-01-23T13:17:29.903Z,0.20
2023-01-23T13:20:34.191Z,0.10
2023-01-23T13:23:21.097Z,0.10
2023-01-23T13:25:47.878Z,0.10
2023-01-23T13:28:44.567Z,0.00
2023-01-23T13:31:34.240Z,0.00
2023-01-23T13:34:17.113Z,0.00
2023-01-23T13:36:43.810Z,0.00
2023-01-23T13:39:13.478Z,0.00
2023-01-23T13:41:40.144Z,0.10
2023-01-23T13:44:19.130Z,0.00
2023-01-23T14:23:33.974Z,0.30
2023-01-23T14:26:15.768Z,0.40
2023-01-23T14:28:55.935Z,0.40
2023-01-23T14:31:32.835Z,0.40
2023-01-23T14:34:09.829Z,0.40
2023-01-23T14:36:57.843Z,0.40
2023-01-23T14:39:32.095Z,0.40
2023-01-23T14:52:23.585Z,0.40
2023-01-23T14:54:54.284Z,0.40
2023-01-23T14:57:23.739Z,0.30
2023-01-23T14:59:52.979Z,0.30
2023-01-23T15:02:25.645Z,0.30
2023-01-23T15:05:07.630Z,0.30
2023-01-23T15:07:44.104Z,0.30
2023-01-23T15:10:18.091Z,0.30
2023-01-23T15:12:49.262Z,0.20
2023-01-23T15:15:20.818Z,0.20
2023-01-23T15:17:47.944Z,0.30
2023-01-23T15:20:33.179Z,0.30
2023-01-23T15:23:23.189Z,0.40
2023-01-23T15:26:00.868Z,0.40
2023-01-23T15:28:37.347Z,0.40
2023-01-23T15:31:04.298Z,0.40
2023-01-23T15:33:32.078Z,0.40
2023-01-23T15:36:03.306Z,0.40
2023-01-23T15:38:30.041Z,0.40
2023-01-23T15:40:57.145Z,0.40
2023-01-23T15:43:23.839Z,0.40
2023-01-23T15:45:50.563Z,0.40
2023-01-23T15:48:17.219Z,0.40
2023-01-23T15:50:43.860Z,0.40
2023-01-23T15:53:12.451Z,0.30
2023-01-23T15:55:40.374Z,0.30
2023-01-23T15:58:07.010Z,0.30
2023-01-23T16:00:33.661Z,0.40
2023-01-23T16:03:01.447Z,0.30
2023-01-23T16:05:29.334Z,0.30
2023-01-23T16:07:57.003Z,0.30
2023-01-23T16:10:25.590Z,0.30
2023-01-23T16:12:53.665Z,0.30
2023-01-23T16:15:21.551Z,0.30
2023-01-23T16:17:48.271Z,0.40
2023-01-23T16:20:22.517Z,0.40
2023-01-23T16:22:51.941Z,0.30
2023-01-23T16:25:19.861Z,0.40
2023-01-23T16:27:46.524Z,0.30
2023-01-23T16:30:20.403Z,0.30
2023-01-23T16:32:47.173Z,0.40
2023-01-23T16:35:14.441Z,0.30
2023-01-23T16:37:42.266Z,0.30
2023-01-23T16:40:15.076Z,0.30
2023-01-23T16:42:43.594Z,0.30
2023-01-23T16:45:27.970Z,0.40
2023-01-23T16:47:55.046Z,0.30
2023-01-23T16:50:23.243Z,0.40
2023-01-23T16:52:55.012Z,0.30
2023-01-23T16:55:23.411Z,0.30
2023-01-23T16:57:51.820Z,0.40
2023-01-23T17:00:33.908Z,0.40
2023-01-23T17:03:02.342Z,0.40
2023-01-23T17:05:29.017Z,0.40
2023-01-23T17:07:55.667Z,0.40
2023-01-23T17:10:26.224Z,0.40
2023-01-23T17:12:58.204Z,0.40
2023-01-23T17:15:27.308Z,0.40
2023-01-23T17:17:55.947Z,0.30
2023-01-23T17:20:22.591Z,0.30
2023-01-23T17:22:49.407Z,0.30
2023-01-23T17:25:17.371Z,0.40
2023-01-23T17:27:45.822Z,0.40
2023-01-23T17:30:18.265Z,0.40
2023-01-23T17:32:46.806Z,0.40
2023-01-23T17:35:21.760Z,0.40
2023-01-23T17:37:50.308Z,0.40
2023-01-23T17:40:17.099Z,0.40
2023-01-23T17:42:43.925Z,0.40
2023-01-23T17:45:20.153Z,0.40
2023-01-23T17:47:54.028Z,0.40
2023-01-23T17:50:23.427Z,0.40
2023-01-23T17:52:50.672Z,0.40
2023-01-23T17:55:28.241Z,0.40
2023-01-23T17:58:09.150Z,0.40
2023-01-23T18:00:37.739Z,0.40
2023-01-23T18:03:42.393Z,0.40
2023-01-23T18:06:09.933Z,0.40
2023-01-23T18:08:40.171Z,0.40
2023-01-23T18:11:10.440Z,0.40
2023-01-23T18:13:43.610Z,0.40
2023-01-23T18:16:13.369Z,0.40
2023-01-23T18:18:40.715Z,0.40
2023-01-23T18:21:13.401Z,0.40
2023-01-23T18:23:40.340Z,0.40
2023-01-23T18:26:22.442Z,0.40
2023-01-23T18:28:59.043Z,0.40
2023-01-23T18:31:31.608Z,0.30
2023-01-23T18:34:09.587Z,0.30
2023-01-23T18:36:50.049Z,0.40
2023-01-23T18:39:32.311Z,0.40
2023-01-23T18:42:15.751Z,0.40
2023-01-23T18:44:52.758Z,0.40
2023-01-23T18:47:19.997Z,0.40
2023-01-23T18:49:46.904Z,0.40
2023-01-23T18:52:22.799Z,0.40
2023-01-23T18:55:15.781Z,0.40
2023-01-23T18:57:55.678Z,0.50
2023-01-23T19:00:27.340Z,0.50
2023-01-23T19:02:57.452Z,0.50
2023-01-23T19:05:25.132Z,0.50
2023-01-23T19:07:51.869Z,0.50
2023-01-23T19:10:22.960Z,0.50
2023-01-23T19:13:01.958Z,0.50
2023-01-23T19:15:32.025Z,0.50
2023-01-23T19:18:39.873Z,0.50
2023-01-23T19:21:10.161Z,0.50
2023-01-23T19:23:37.173Z,0.60
2023-01-23T19:26:04.073Z,0.50
2023-01-23T19:28:30.777Z,0.50
2023-01-23T19:30:58.043Z,0.50
2023-01-23T19:33:24.666Z,0.50
2023-01-23T19:35:51.461Z,0.50
2023-01-23T19:38:18.251Z,0.50
2023-01-23T19:40:45.329Z,0.50
2023-01-23T19:43:15.169Z,0.50
2023-01-23T19:45:42.669Z,0.50
2023-01-23T19:48:09.514Z,0.40
2023-01-23T19:50:36.400Z,0.50
2023-01-23T19:53:06.338Z,0.40
2023-01-23T19:55:40.007Z,0.50
2023-01-23T19:58:12.641Z,0.40
2023-01-23T20:00:51.649Z,0.40
2023-01-23T20:04:01.503Z,0.40
2023-01-23T20:06:34.813Z,0.50
2023-01-23T20:09:14.592Z,0.50
2023-01-23T20:12:01.889Z,0.50
2023-01-23T20:14:30.787Z,0.50
2023-01-23T20:17:22.515Z,0.50
2023-01-23T20:19:49.719Z,0.50
2023-01-23T20:22:18.780Z,0.50
2023-01-23T20:25:33.064Z,0.50
2023-01-23T20:27:59.845Z,0.50
2023-01-23T20:30:36.299Z,0.50
2023-01-23T20:33:05.500Z,0.50
2023-01-23T20:35:32.149Z,0.50
2023-01-23T20:37:58.911Z,0.50
2023-01-23T20:40:42.839Z,0.40
2023-01-23T20:43:09.859Z,0.40
2023-01-23T20:45:36.550Z,0.50
2023-01-23T20:48:38.484Z,0.50
2023-01-23T20:51:06.712Z,0.50
2023-01-23T20:53:35.789Z,0.50
2023-01-23T20:56:08.214Z,0.40
2023-01-23T20:58:56.769Z,0.40
2023-01-23T21:01:24.497Z,0.50
2023-01-23T21:03:54.257Z,0.50
2023-01-23T21:06:30.987Z,0.50
2023-01-23T21:08:58.566Z,0.40
2023-01-23T21:11:38.469Z,0.50
2023-01-23T21:14:05.235Z,0.50
2023-01-23T21:16:31.916Z,0.50
2023-01-23T21:19:20.650Z,0.50
2023-01-23T21:21:47.614Z,0.40
2023-01-23T21:28:22.827Z,0.40
2023-01-23T21:30:49.628Z,0.40
2023-01-23T21:33:16.332Z,0.40
2023-01-23T21:35:56.220Z,0.40
2023-01-23T21:38:29.024Z,0.40
2023-01-23T21:41:07.969Z,0.40
2023-01-23T21:43:34.948Z,0.40
2023-01-23T21:46:05.156Z,0.40
2023-01-23T21:48:32.652Z,0.40
2023-01-23T21:51:12.531Z,0.40
2023-01-23T21:54:10.647Z,0.40
2023-01-23T21:56:58.259Z,0.40
2023-01-23T22:03:32.709Z,0.40
2023-01-23T22:06:21.522Z,0.50
2023-01-23T22:08:48.357Z,0.50
2023-01-23T22:14:02.743Z,0.40
2023-01-23T22:16:49.845Z,0.40
2023-01-23T22:19:17.757Z,0.50
2023-01-23T22:21:47.335Z,0.50
2023-01-23T22:24:14.903Z,0.50
2023-01-23T22:26:42.173Z,0.50
2023-01-23T22:29:08.922Z,0.50
2023-01-23T22:31:49.168Z,0.50
2023-01-23T22:34:17.492Z,0.50
2023-01-23T22:36:44.203Z,0.50
2023-01-23T22:53:25.732Z,0.50
2023-01-23T22:55:52.368Z,0.40
2023-01-23T22:58:19.000Z,0.40
2023-01-23T23:00:46.350Z,0.40
2023-01-23T23:03:13.129Z,0.40
2023-01-23T23:05:39.939Z,0.40
2023-01-23T23:08:06.593Z,0.40
2023-01-23T23:10:33.236Z,0.40
2023-01-23T23:12:59.891Z,0.50
2023-01-23T23:15:26.608Z,0.50
2023-01-23T23:17:53.320Z,0.50
2023-01-23T23:20:20.132Z,0.40
2023-01-23T23:22:47.863Z,0.50
2023-01-23T23:25:14.550Z,0.50
2023-01-23T23:27:41.243Z,0.50
2023-01-23T23:30:08.375Z,0.50
2023-01-23T23:32:35.036Z,0.40
2023-01-23T23:35:01.782Z,0.40
2023-01-23T23:37:28.381Z,0.30
2023-01-23T23:39:54.996Z,0.30
2023-01-23T23:42:21.662Z,0.30
2023-01-23T23:44:48.542Z,0.40
2023-01-23T23:47:15.387Z,0.40
2023-01-23T23:49:42.081Z,0.40
2023-01-23T23:52:11.887Z,0.40
2023-01-23T23:54:38.700Z,0.40
2023-01-23T23:57:05.604Z,0.40
2023-01-23T23:59:32.288Z,0.50
